createdAt,value
2022-11-06T00:01:12.950Z,5.68
2022-11-06T00:03:40.009Z,5.78
2022-11-06T00:06:31.605Z,5.75
2022-11-06T00:09:03.100Z,6.22
2022-11-06T00:11:30.348Z,5.65
2022-11-06T00:13:57.515Z,6.00
2022-11-06T00:16:24.346Z,6.72
2022-11-06T00:18:51.044Z,6.65
2022-11-06T00:21:20.223Z,6.20
2022-11-06T00:23:48.043Z,6.45
2022-11-06T00:26:23.257Z,5.85
2022-11-06T00:28:50.278Z,5.55
2022-11-06T00:31:19.570Z,6.03
2022-11-06T00:33:46.818Z,6.18
2022-11-06T00:36:16.515Z,6.30
2022-11-06T00:41:12.523Z,6.47
2022-11-06T00:43:39.627Z,6.03
2022-11-06T00:46:09.340Z,6.20
2022-11-06T00:48:37.010Z,6.65
2022-11-06T00:51:12.948Z,5.75
2022-11-06T00:53:39.905Z,6.38
2022-11-06T00:56:09.283Z,6.03
2022-11-06T00:58:36.245Z,6.65
2022-11-06T01:01:07.209Z,6.95
2022-11-06T01:03:33.805Z,6.43
2022-11-06T01:06:12.366Z,6.90
2022-11-06T01:08:39.700Z,6.90
2022-11-06T01:11:13.933Z,6.82
2022-11-06T01:13:41.867Z,6.50
2022-11-06T01:16:15.725Z,6.53
2022-11-06T01:18:44.121Z,6.82
2022-11-06T01:21:16.341Z,6.68
2022-11-06T01:23:43.989Z,6.90
2022-11-06T01:26:12.981Z,6.55
2022-11-06T01:28:40.965Z,6.78
2022-11-06T01:31:11.149Z,6.45
2022-11-06T01:33:37.981Z,6.45
2022-11-06T01:36:04.983Z,6.35
2022-11-06T01:38:31.561Z,6.80
2022-11-06T01:40:58.148Z,6.65
2022-11-06T01:43:54.372Z,6.95
2022-11-06T01:46:23.274Z,6.55
2022-11-06T01:49:00.158Z,6.60
2022-11-06T01:51:29.323Z,7.28
2022-11-06T01:53:57.211Z,5.88
2022-11-06T01:56:24.478Z,6.05
2022-11-06T01:58:54.429Z,6.10
2022-11-06T02:01:22.133Z,6.95
2022-11-06T02:04:03.143Z,7.15
2022-11-06T02:06:30.149Z,5.95
2022-11-06T02:08:56.761Z,6.60
2022-11-06T02:11:23.392Z,6.03
2022-11-06T02:14:09.730Z,5.63
2022-11-06T02:16:49.152Z,6.00
2022-11-06T02:19:32.453Z,5.30
2022-11-06T02:22:43.824Z,5.35
2022-11-06T02:25:32.605Z,5.40
2022-11-06T02:28:17.551Z,5.65
2022-11-06T02:30:47.436Z,4.72
2022-11-06T02:33:17.900Z,4.82
2022-11-06T02:35:52.474Z,4.97
2022-11-06T02:38:28.707Z,4.93
2022-11-06T02:41:02.631Z,4.82
2022-11-06T02:43:38.399Z,5.03
2022-11-06T02:46:32.162Z,4.43
2022-11-06T02:49:10.017Z,4.75
2022-11-06T02:51:43.601Z,4.35
2022-11-06T02:54:12.246Z,3.92
2022-11-06T02:56:45.200Z,4.07
2022-11-06T02:59:21.771Z,3.92
2022-11-06T03:01:56.138Z,4.35
2022-11-06T03:04:45.983Z,4.82
2022-11-06T03:07:31.321Z,4.50
2022-11-06T03:09:58.029Z,4.05
2022-11-06T03:12:36.056Z,4.18
2022-11-06T03:15:27.720Z,3.88
2022-11-06T03:18:00.314Z,4.10
2022-11-06T03:20:36.199Z,3.58
2022-11-06T03:23:08.817Z,3.60
2022-11-06T03:25:43.446Z,3.97
2022-11-06T03:28:25.554Z,3.83
2022-11-06T03:30:59.923Z,4.07
2022-11-06T03:33:40.515Z,4.15
2022-11-06T03:36:14.984Z,4.20
2022-11-06T03:38:49.832Z,3.58
2022-11-06T03:41:39.665Z,3.63
2022-11-06T03:44:10.461Z,4.15
2022-11-06T03:46:42.016Z,4.50
2022-11-06T03:49:13.738Z,3.17
2022-11-06T03:51:45.207Z,3.55
2022-11-06T03:54:17.820Z,3.00
2022-11-06T03:56:50.975Z,3.55
2022-11-06T03:59:23.370Z,3.88
2022-11-06T04:01:53.940Z,3.47
2022-11-06T04:04:38.635Z,3.45
2022-11-06T04:07:12.332Z,3.22
2022-11-06T04:10:01.109Z,3.00
2022-11-06T04:12:48.520Z,3.27
2022-11-06T04:15:18.141Z,3.38
2022-11-06T04:20:36.731Z,3.10
2022-11-06T04:23:22.537Z,3.22
2022-11-06T04:26:19.764Z,3.10
2022-11-06T04:29:02.414Z,3.50
2022-11-06T04:31:35.190Z,3.53
2022-11-06T04:34:27.018Z,2.85
2022-11-06T04:37:08.955Z,3.08
2022-11-06T04:39:52.876Z,2.95
2022-11-06T04:42:28.428Z,3.13
2022-11-06T04:45:20.591Z,3.25
2022-11-06T04:47:48.175Z,2.90
2022-11-06T04:50:17.443Z,3.03
2022-11-06T04:52:45.241Z,2.88
2022-11-06T04:55:11.759Z,3.28
2022-11-06T04:57:38.345Z,2.80
2022-11-06T05:00:06.469Z,3.33
2022-11-06T05:02:33.395Z,2.92
2022-11-06T05:05:00.024Z,3.33
2022-11-06T05:07:26.697Z,2.92
2022-11-06T05:09:53.255Z,2.83
2022-11-06T05:12:19.816Z,3.42
2022-11-06T05:14:46.403Z,2.85
2022-11-06T05:17:12.986Z,2.80
2022-11-06T05:19:39.632Z,3.00
2022-11-06T05:22:24.959Z,2.75
2022-11-06T05:24:51.527Z,3.15
2022-11-06T05:27:18.165Z,2.92
2022-11-06T05:29:45.301Z,3.20
2022-11-06T05:32:12.161Z,2.75
2022-11-06T05:34:38.725Z,3.13
2022-11-06T05:37:05.323Z,3.00
2022-11-06T05:39:31.984Z,3.55
2022-11-06T05:41:58.743Z,2.78
2022-11-06T05:44:25.366Z,2.78
2022-11-06T05:46:51.952Z,2.80
2022-11-06T05:49:18.830Z,3.03
2022-11-06T05:51:45.941Z,2.20
2022-11-06T05:54:12.729Z,2.85
2022-11-06T05:56:39.336Z,3.33
2022-11-06T05:59:06.648Z,3.25
2022-11-06T06:01:33.352Z,3.22
2022-11-06T06:04:00.075Z,3.13
2022-11-06T06:06:26.933Z,2.90
2022-11-06T06:08:53.432Z,3.25
2022-11-06T06:11:20.190Z,3.08
2022-11-06T06:13:48.082Z,2.55
2022-11-06T06:16:14.672Z,3.15
2022-11-06T06:18:41.182Z,2.65
2022-11-06T06:21:07.707Z,3.00
2022-11-06T06:23:35.180Z,2.92
2022-11-06T06:26:01.741Z,2.75
2022-11-06T06:28:28.300Z,2.92
2022-11-06T06:31:00.084Z,3.30
2022-11-06T06:33:28.058Z,3.35
2022-11-06T06:35:54.605Z,3.20
2022-11-06T06:38:21.104Z,3.20
2022-11-06T06:40:47.647Z,3.38
2022-11-06T06:43:14.213Z,3.60
2022-11-06T06:45:41.792Z,2.95
2022-11-06T06:48:09.270Z,3.25
2022-11-06T06:50:35.936Z,3.67
2022-11-06T06:53:02.707Z,3.30
2022-11-06T06:55:29.539Z,3.22
2022-11-06T06:58:00.236Z,2.95
2022-11-06T07:00:28.929Z,3.50
2022-11-06T07:02:55.954Z,3.30
2022-11-06T07:05:22.982Z,3.70
2022-11-06T07:07:49.617Z,3.40
2022-11-06T07:10:16.385Z,3.55
2022-11-06T07:12:42.986Z,3.25
2022-11-06T07:15:10.076Z,3.65
2022-11-06T07:17:36.715Z,4.15
2022-11-06T07:20:04.319Z,4.63
2022-11-06T07:22:36.670Z,3.70
2022-11-06T07:25:04.814Z,3.65
2022-11-06T07:27:31.375Z,3.70
2022-11-06T07:29:57.962Z,3.58
2022-11-06T07:32:24.473Z,3.20
2022-11-06T07:34:51.034Z,3.58
2022-11-06T07:37:17.630Z,2.80
2022-11-06T07:39:44.233Z,3.60
2022-11-06T07:42:10.793Z,2.83
2022-11-06T07:44:37.391Z,3.13
2022-11-06T07:47:04.059Z,3.33
2022-11-06T07:49:30.660Z,3.17
2022-11-06T07:51:57.213Z,2.92
2022-11-06T07:54:23.757Z,3.53
2022-11-06T07:56:50.298Z,3.88
2022-11-06T07:59:16.982Z,3.60
2022-11-06T08:01:43.735Z,3.00
2022-11-06T08:04:10.850Z,3.08
2022-11-06T08:06:37.479Z,3.00
2022-11-06T08:09:08.370Z,2.38
2022-11-06T08:11:35.121Z,2.63
2022-11-06T08:14:01.856Z,2.67
2022-11-06T08:16:28.490Z,2.42
2022-11-06T08:18:55.979Z,2.13
2022-11-06T08:21:22.904Z,2.28
2022-11-06T08:23:49.527Z,1.98
2022-11-06T08:26:16.403Z,2.35
2022-11-06T08:28:43.274Z,2.10
2022-11-06T08:31:10.071Z,2.35
2022-11-06T08:33:38.121Z,2.15
2022-11-06T08:36:06.392Z,2.22
2022-11-06T08:38:32.996Z,2.00
2022-11-06T08:41:07.359Z,2.67
2022-11-06T08:43:35.099Z,1.70
2022-11-06T08:46:01.804Z,1.92
2022-11-06T08:48:28.481Z,1.95
2022-11-06T08:50:55.147Z,2.33
2022-11-06T08:53:21.762Z,2.35
2022-11-06T08:55:48.417Z,2.22
2022-11-06T08:58:15.361Z,2.20
2022-11-06T09:00:42.535Z,2.33
2022-11-06T09:03:16.249Z,2.40
2022-11-06T09:05:44.106Z,1.90
2022-11-06T09:08:12.070Z,2.00
2022-11-06T09:10:40.699Z,1.77
2022-11-06T09:13:07.875Z,1.73
2022-11-06T09:15:34.501Z,2.90
2022-11-06T09:18:01.228Z,1.77
2022-11-06T09:20:28.255Z,1.90
2022-11-06T09:22:59.654Z,1.92
2022-11-06T09:25:26.499Z,2.00
2022-11-06T09:27:58.958Z,1.63
2022-11-06T09:30:31.143Z,2.83
2022-11-06T09:33:01.429Z,2.42
2022-11-06T09:35:30.567Z,2.63
2022-11-06T09:38:04.932Z,2.58
2022-11-06T09:40:36.128Z,2.05
2022-11-06T09:43:27.257Z,1.70
2022-11-06T09:46:31.758Z,1.67
2022-11-06T09:49:06.078Z,1.42
2022-11-06T09:51:48.886Z,1.63
2022-11-06T09:54:41.633Z,1.65
2022-11-06T09:57:19.244Z,1.73
2022-11-06T09:59:47.896Z,1.63
2022-11-06T10:02:30.743Z,1.38
2022-11-06T10:05:25.517Z,1.73
2022-11-06T10:07:56.355Z,1.77
2022-11-06T10:10:29.364Z,1.60
2022-11-06T10:13:32.935Z,1.27
2022-11-06T10:16:24.845Z,2.15
2022-11-06T10:19:25.637Z,1.60
2022-11-06T10:22:07.409Z,1.48
2022-11-06T10:24:40.155Z,1.55
2022-11-06T10:27:15.859Z,1.60
2022-11-06T10:29:54.969Z,1.60
2022-11-06T10:32:30.749Z,1.50
2022-11-06T10:35:02.973Z,1.30
2022-11-06T10:37:35.391Z,1.60
2022-11-06T10:40:07.141Z,1.80
2022-11-06T10:42:39.816Z,1.30
2022-11-06T10:45:14.579Z,2.28
2022-11-06T10:48:06.353Z,1.23
2022-11-06T10:51:01.926Z,1.52
2022-11-06T10:53:52.320Z,1.70
2022-11-06T10:56:37.741Z,1.50
2022-11-06T10:59:05.152Z,1.55
2022-11-06T11:01:31.935Z,1.83
2022-11-06T11:03:58.722Z,1.73
2022-11-06T11:06:25.580Z,2.03
2022-11-06T11:08:52.955Z,1.15
2022-11-06T11:11:25.214Z,1.63
2022-11-06T11:14:00.750Z,1.23
2022-11-06T11:16:32.262Z,1.30
2022-11-06T11:19:25.772Z,1.42
2022-11-06T11:21:55.307Z,1.40
2022-11-06T11:26:51.284Z,1.35
2022-11-06T11:32:02.619Z,1.45
2022-11-06T11:34:32.160Z,1.80
2022-11-06T11:37:03.311Z,1.33
2022-11-06T11:39:32.650Z,1.90
2022-11-06T11:42:31.801Z,1.42
2022-11-06T11:45:10.226Z,1.67
2022-11-06T11:47:38.716Z,1.80
2022-11-06T11:50:33.026Z,1.60
2022-11-06T11:53:14.757Z,2.10
2022-11-06T11:55:45.347Z,2.30
2022-11-06T11:58:23.509Z,1.50
2022-11-06T12:00:58.796Z,1.45
2022-11-06T12:03:34.224Z,1.40
2022-11-06T12:06:20.671Z,1.20
2022-11-06T12:08:56.404Z,1.50
2022-11-06T12:11:28.020Z,1.55
2022-11-06T12:14:29.374Z,1.73
2022-11-06T12:17:17.924Z,1.55
2022-11-06T12:19:51.367Z,1.42
2022-11-06T12:22:28.795Z,2.10
2022-11-06T12:25:10.149Z,2.72
2022-11-06T12:27:52.784Z,3.10
2022-11-06T12:30:21.110Z,1.52
2022-11-06T12:33:14.951Z,1.50
2022-11-06T12:35:48.773Z,1.48
2022-11-06T12:38:31.106Z,1.58
2022-11-06T12:41:04.092Z,1.42
2022-11-06T12:43:47.931Z,1.48
2022-11-06T12:46:29.410Z,1.35
2022-11-06T12:49:23.786Z,1.38
2022-11-06T12:51:56.306Z,1.50
2022-11-06T12:54:52.458Z,1.95
2022-11-06T12:57:36.968Z,1.75
2022-11-06T13:00:19.954Z,1.52
2022-11-06T13:03:00.301Z,1.50
2022-11-06T13:05:38.807Z,1.40
2022-11-06T13:08:44.632Z,1.60
2022-11-06T13:11:23.921Z,2.00
2022-11-06T13:14:39.884Z,1.52
2022-11-06T13:17:25.299Z,2.13
2022-11-06T13:20:07.615Z,1.60
2022-11-06T13:22:44.954Z,1.70
2022-11-06T13:25:11.472Z,1.52
2022-11-06T13:28:10.282Z,2.03
2022-11-06T13:30:38.917Z,1.70
2022-11-06T13:33:22.894Z,1.40
2022-11-06T13:35:49.724Z,1.30
2022-11-06T13:38:23.123Z,1.50
2022-11-06T13:40:53.701Z,1.67
2022-11-06T13:43:28.935Z,1.58
2022-11-06T13:46:01.564Z,1.50
2022-11-06T13:48:44.432Z,1.30
2022-11-06T13:51:20.074Z,1.38
2022-11-06T13:54:23.769Z,1.60
2022-11-06T13:57:07.258Z,1.10
2022-11-06T14:00:03.983Z,0.85
2022-11-06T14:03:16.580Z,1.40
2022-11-06T14:05:57.456Z,2.30
2022-11-06T14:08:30.603Z,1.65
2022-11-06T14:11:11.086Z,1.20
2022-11-06T14:13:38.491Z,1.35
2022-11-06T14:16:34.666Z,1.30
2022-11-06T14:19:01.530Z,1.60
2022-11-06T14:21:37.293Z,1.80
2022-11-06T14:24:30.387Z,2.08
2022-11-06T14:26:58.327Z,1.33
2022-11-06T14:29:27.920Z,1.20
2022-11-06T14:34:30.846Z,1.42
2022-11-06T14:36:57.692Z,1.48
2022-11-06T14:39:56.784Z,1.63
2022-11-06T14:42:27.068Z,1.58
2022-11-06T14:45:00.911Z,1.52
2022-11-06T14:47:49.539Z,1.58
2022-11-06T14:50:19.108Z,1.60
2022-11-06T14:55:43.074Z,2.00
2022-11-06T14:58:33.715Z,1.70
2022-11-06T15:01:14.756Z,1.85
2022-11-06T15:03:51.498Z,1.30
2022-11-06T15:06:18.164Z,1.25
2022-11-06T15:08:50.844Z,1.38
2022-11-06T15:11:29.961Z,1.90
2022-11-06T15:14:16.594Z,1.67
2022-11-06T15:16:52.094Z,1.55
2022-11-06T15:19:37.570Z,1.63
2022-11-06T15:22:19.678Z,1.50
2022-11-06T15:25:04.417Z,1.40
2022-11-06T15:27:38.937Z,1.60
2022-11-06T15:30:16.093Z,1.50
2022-11-06T15:32:45.873Z,4.38
2022-11-06T15:35:27.496Z,3.25
2022-11-06T15:38:13.464Z,2.88
2022-11-06T15:40:41.583Z,1.95
2022-11-06T15:43:26.596Z,1.25
2022-11-06T15:46:12.577Z,1.42
2022-11-06T15:48:39.249Z,1.60
2022-11-06T15:51:21.308Z,2.38
2022-11-06T15:53:48.012Z,1.98
2022-11-06T15:56:17.542Z,1.95
2022-11-06T15:58:44.631Z,2.67
2022-11-06T16:01:11.812Z,2.53
2022-11-06T16:03:53.299Z,2.97
2022-11-06T16:06:20.800Z,2.60
2022-11-06T16:08:49.218Z,3.05
2022-11-06T16:11:19.160Z,3.10
2022-11-06T16:13:46.814Z,3.20
2022-11-06T16:16:40.765Z,3.88
2022-11-06T16:19:21.565Z,3.35
2022-11-06T16:22:10.839Z,3.30
2022-11-06T16:24:43.460Z,3.00
2022-11-06T16:27:11.196Z,2.92
2022-11-06T16:29:38.531Z,3.60
2022-11-06T16:32:13.963Z,3.35
2022-11-06T16:34:46.489Z,3.75
2022-11-06T16:37:15.870Z,3.25
2022-11-06T16:39:56.074Z,3.40
2022-11-06T16:42:22.639Z,4.20
2022-11-06T16:44:50.900Z,4.07
2022-11-06T16:47:18.544Z,3.55
2022-11-06T16:49:52.864Z,3.95
2022-11-06T16:52:30.640Z,3.88
2022-11-06T16:55:02.810Z,3.70
2022-11-06T16:57:36.737Z,3.55
2022-11-06T17:00:33.212Z,4.15
2022-11-06T17:03:03.957Z,4.30
2022-11-06T17:05:33.801Z,4.20
2022-11-06T17:08:41.630Z,4.00
2022-11-06T17:11:28.356Z,4.43
2022-11-06T17:13:59.731Z,4.00
2022-11-06T17:19:09.645Z,3.25
2022-11-06T17:21:41.437Z,3.83
2022-11-06T17:24:37.386Z,3.72
2022-11-06T17:27:05.283Z,3.95
2022-11-06T17:29:33.482Z,3.92
2022-11-06T17:32:00.098Z,3.08
2022-11-06T17:34:26.720Z,2.58
2022-11-06T17:36:53.574Z,2.00
2022-11-06T17:39:20.096Z,1.98
2022-11-06T17:41:46.798Z,2.03
2022-11-06T17:44:13.528Z,2.67
2022-11-06T17:46:42.599Z,2.17
2022-11-06T17:49:16.772Z,2.45
2022-11-06T17:51:49.974Z,2.00
2022-11-06T17:54:17.981Z,2.13
2022-11-06T17:56:44.963Z,2.13
2022-11-06T17:59:13.243Z,2.10
2022-11-06T18:01:40.688Z,1.83
2022-11-06T18:04:07.676Z,2.22
2022-11-06T18:06:34.471Z,1.88
2022-11-06T18:09:04.425Z,2.13
2022-11-06T18:11:31.203Z,2.42
2022-11-06T18:13:57.915Z,2.10
2022-11-06T18:16:27.969Z,1.70
2022-11-06T18:18:55.120Z,1.90
2022-11-06T18:21:22.307Z,2.00
2022-11-06T18:23:49.368Z,2.40
2022-11-06T18:26:16.539Z,2.10
2022-11-06T18:28:43.174Z,2.05
2022-11-06T18:31:09.807Z,2.22
2022-11-06T18:33:36.528Z,2.25
2022-11-06T18:36:06.239Z,2.30
2022-11-06T18:41:05.857Z,2.60
2022-11-06T18:43:32.442Z,2.92
2022-11-06T18:46:03.642Z,3.40
2022-11-06T18:48:32.017Z,3.67
2022-11-06T18:51:08.415Z,3.58
2022-11-06T18:53:35.380Z,3.80
2022-11-06T18:56:02.369Z,3.10
2022-11-06T18:58:29.404Z,3.03
2022-11-06T19:01:01.496Z,2.97
2022-11-06T19:03:28.753Z,3.17
2022-11-06T19:05:56.491Z,3.40
2022-11-06T19:08:23.173Z,3.40
2022-11-06T19:10:49.698Z,4.07
2022-11-06T19:13:17.424Z,3.22
2022-11-06T19:15:44.953Z,3.10
2022-11-06T19:18:13.019Z,3.03
2022-11-06T19:20:41.017Z,3.08
2022-11-06T19:23:08.077Z,2.67
2022-11-06T19:25:35.408Z,2.33
2022-11-06T19:28:03.014Z,2.47
2022-11-06T19:30:29.562Z,2.50
2022-11-06T19:32:56.228Z,2.10
2022-11-06T19:35:22.790Z,2.25
2022-11-06T19:37:49.500Z,2.40
2022-11-06T19:40:16.339Z,2.30
2022-11-06T19:42:42.891Z,2.17
2022-11-06T19:45:10.420Z,2.33
2022-11-06T19:47:37.520Z,2.13
2022-11-06T19:50:04.945Z,2.30
2022-11-06T19:52:41.532Z,1.90
2022-11-06T19:55:26.731Z,1.90
2022-11-06T19:57:57.475Z,1.50
2022-11-06T20:02:50.947Z,1.20
2022-11-06T20:05:18.165Z,1.17
2022-11-06T20:07:44.895Z,1.33
2022-11-06T20:10:11.550Z,1.70
2022-11-06T20:12:38.374Z,1.20
2022-11-06T20:15:05.518Z,1.20
2022-11-06T20:17:32.069Z,1.30
2022-11-06T20:19:58.716Z,1.20
2022-11-06T20:22:25.524Z,1.20
2022-11-06T20:24:52.266Z,1.40
2022-11-06T20:27:19.215Z,1.60
2022-11-06T20:29:45.799Z,1.60
2022-11-06T20:32:18.669Z,2.15
2022-11-06T20:34:45.930Z,1.85
2022-11-06T20:37:12.673Z,1.38
2022-11-06T20:39:41.448Z,1.48
2022-11-06T20:42:08.069Z,1.55
2022-11-06T20:44:34.697Z,1.35
2022-11-06T20:47:01.432Z,1.20
2022-11-06T20:49:28.334Z,1.65
2022-11-06T20:52:13.223Z,1.60
2022-11-06T20:54:46.413Z,1.83
2022-11-06T20:57:15.187Z,1.73
2022-11-06T20:59:41.758Z,1.95
2022-11-06T21:02:10.965Z,2.15
2022-11-06T21:04:37.866Z,1.70
2022-11-06T21:07:04.689Z,1.75
2022-11-06T21:09:31.710Z,2.30
2022-11-06T21:11:58.344Z,2.10
2022-11-06T21:14:25.053Z,1.88
2022-11-06T21:16:52.645Z,2.00
2022-11-06T21:19:19.323Z,1.60
2022-11-06T21:21:46.021Z,1.77
2022-11-06T21:24:12.699Z,2.53
2022-11-06T21:26:39.848Z,2.20
2022-11-06T21:29:10.613Z,1.83
2022-11-06T21:31:43.950Z,1.90
2022-11-06T21:34:15.494Z,1.95
2022-11-06T21:36:42.260Z,1.75
2022-11-06T21:39:12.247Z,1.80
2022-11-06T21:41:39.120Z,2.10
2022-11-06T21:44:07.679Z,1.63
2022-11-06T21:46:34.808Z,1.80
2022-11-06T21:49:01.427Z,1.67
2022-11-06T21:51:30.515Z,1.80
2022-11-06T21:54:16.200Z,1.92
2022-11-06T21:56:43.721Z,1.40
2022-11-06T21:59:13.867Z,1.60
2022-11-06T22:01:42.006Z,1.67
2022-11-06T22:04:09.441Z,1.90
2022-11-06T22:06:36.380Z,1.80
2022-11-06T22:09:03.948Z,2.03
2022-11-06T22:11:39.184Z,1.60
2022-11-06T22:14:08.753Z,1.45
2022-11-06T22:19:06.640Z,2.08
2022-11-06T22:21:34.137Z,1.80
2022-11-06T22:24:00.840Z,1.70
2022-11-06T22:26:30.830Z,2.00
2022-11-06T22:28:59.999Z,1.75
2022-11-06T22:31:27.990Z,1.80
2022-11-06T22:33:54.982Z,1.45
2022-11-06T22:36:22.761Z,2.03
2022-11-06T22:38:49.869Z,1.63
2022-11-06T22:41:18.713Z,1.80
2022-11-06T22:43:45.591Z,2.00
2022-11-06T22:46:13.871Z,1.60
2022-11-06T22:48:40.538Z,1.52
2022-11-06T22:51:09.845Z,1.60
2022-11-06T22:53:36.966Z,1.88
2022-11-06T22:56:03.656Z,2.00
2022-11-06T22:58:31.439Z,2.10
2022-11-06T23:00:59.392Z,2.00
2022-11-06T23:03:28.513Z,1.50
2022-11-06T23:05:58.085Z,2.10
2022-11-06T23:08:27.296Z,1.90
2022-11-06T23:10:55.439Z,1.90
2022-11-06T23:13:22.918Z,2.28
2022-11-06T23:15:50.228Z,1.80
2022-11-06T23:18:17.127Z,2.00
2022-11-06T23:20:43.732Z,1.60
2022-11-06T23:23:10.428Z,1.90
2022-11-06T23:25:37.881Z,1.92
2022-11-06T23:28:04.743Z,1.70
2022-11-06T23:30:31.586Z,1.80
2022-11-06T23:32:58.833Z,1.80
2022-11-06T23:35:31.990Z,2.15
2022-11-06T23:37:59.612Z,1.95
2022-11-06T23:40:26.436Z,1.80
2022-11-06T23:42:56.070Z,1.50
2022-11-06T23:48:15.411Z,1.80
2022-11-06T23:50:46.979Z,1.67
2022-11-06T23:53:16.146Z,1.73
2022-11-06T23:55:42.980Z,1.77
2022-11-06T23:58:09.895Z,1.80
